Vivien A — TCYC4 — position and weather

sailwx.info

Track history (hours):
 
Tides and Currents Weather Stations Pressure Air Temp Water Temp Dewpoint Dewpoint Depression Visibility Wind Speed Wind Dir Waves Ship Positions

Vivien A

Last reported at 2017-Nov-12 03:54 UTC. Time now 2017-Nov-18 08:59 UTC.
Position N 25°48' W 016°11'.

Length 210 m; draft 11.4 m.

Type: Ship (hazmat cat B). MMSI: 271040635.

Date/timePositionNaut miles runAvg speedWind from/ knotsBaromVisibWave heightAir tempDewpointWater temp
2017-Nov-12 03:54N 25°48' W 016°11'615.2
2017-Nov-12 03:30N 25°52' W 016°06'815.1
2017-Nov-12 02:57N 25°58' W 015°59'715.0
2017-Nov-12 02:30N 26°02' W 015°53'815.0
2017-Nov-12 01:56N 26°08' W 015°46'714.9
2017-Nov-12 01:29N 26°13' W 015°41'714.8
2017-Nov-12 01:00N 26°17' W 015°35'2014.8
2017-Nov-11 23:37N 26°31' W 015°18'714.7
2017-Nov-11 23:09N 26°35' W 015°12'214.6
2017-Nov-11 23:00N 26°37' W 015°10'714.5
2017-Nov-11 22:31N 26°42' W 015°05'714.5
2017-Nov-11 22:00N 26°47' W 014°59'914.5
2017-Nov-11 21:24N 26°53' W 014°51'814.4
2017-Nov-11 20:50N 26°58' W 014°44'514.2
2017-Nov-11 20:30N 27°01' W 014°40'714.5
2017-Nov-11 20:00N 27°06' W 014°34'714.7
2017-Nov-11 19:30N 27°11' W 014°28'714.7
2017-Nov-11 19:00N 27°16' W 014°22'714.7
2017-Nov-11 18:30N 27°21' W 014°16'714.6
2017-Nov-11 18:00N 27°26' W 014°10'715.0
2017-Nov-11 17:31N 27°31' W 014°04'815.8
2017-Nov-11 17:01N 27°37' W 013°58'815.8
2017-Nov-11 16:31N 27°42' W 013°51'815.5
2017-Nov-11 16:00N 27°47' W 013°44'815.3
2017-Nov-11 15:30N 27°52' W 013°38'715.1
2017-Nov-11 15:00N 27°58' W 013°33'1215.0
2017-Nov-11 14:13N 28°08' W 013°25'315.0
2017-Nov-11 14:01N 28°10' W 013°23'915.0
2017-Nov-11 13:25N 28°18' W 013°18'714.7
2017-Nov-11 12:58N 28°24' W 013°14'714.8
2017-Nov-11 12:30N 28°29' W 013°10'814.8
2017-Nov-11 11:57N 28°36' W 013°05'714.8
2017-Nov-11 11:26N 28°43' W 013°00'614.7
2017-Nov-11 11:00N 28°48' W 012°56'714.3
2017-Nov-11 10:30N 28°54' W 012°52'714.1
2017-Nov-11 10:00N 29°00' W 012°48'714.3
2017-Nov-11 09:30N 29°06' W 012°44'714.3
2017-Nov-11 09:00N 29°12' W 012°39'714.3
2017-Nov-11 08:30N 29°18' W 012°35'714.6
2017-Nov-11 08:00N 29°25' W 012°30'814.5
2017-Nov-11 07:25N 29°32' W 012°25'714.6
2017-Nov-11 06:55N 29°38' W 012°21'1414.8
2017-Nov-11 05:56N 29°50' W 012°12'2014.8
2017-Nov-11 04:34N 30°08' W 012°00'314.7
2017-Nov-11 04:21N 30°11' W 011°59'514.8
2017-Nov-11 03:59N 30°16' W 011°56'914.6
2017-Nov-11 03:24N 30°23' W 011°51'1414.4
2017-Nov-11 02:25N 30°35' W 011°42'614.7
2017-Nov-11 02:00N 30°40' W 011°38'914.7
2017-Nov-11 01:23N 30°48' W 011°33'614.7
2017-Nov-11 01:01N 30°53' W 011°29'2715.0
2017-Nov-10 23:14N 31°15' W 011°13'1515.4
2017-Nov-10 22:17N 31°28' W 011°04'515.2
2017-Nov-10 21:57N 31°32' W 011°01'1114.9
2017-Nov-10 21:14N 31°41' W 010°54'224 4.7
2017-Nov-08 21:25N 33°60' W 007°25'5715.8
2017-Nov-08 17:46N 34°51' W 006°55'415.5
2017-Nov-08 17:30N 34°55' W 006°53'1315.3
2017-Nov-08 16:40N 35°07' W 006°46'315.7
2017-Nov-08 16:30N 35°09' W 006°45'57 2.5
2017-Nov-07 17:45N 35°53' W 006°01'312.8
2017-Nov-07 17:30N 35°53' W 006°05'612.7
2017-Nov-07 17:00N 35°54' W 006°13'713.6
2017-Nov-07 16:30N 35°55' W 006°21'1914.2
2017-Nov-07 15:12N 35°60' W 006°43'513.9
2017-Nov-07 14:51N 36°01' W 006°49'16412.5
2017-Nov-07 01:42N 37°25' W 009°45'315.0
2017-Nov-07 01:30N 37°28' W 009°46'815.2
2017-Nov-07 01:00N 37°35' W 009°48'2014.7
2017-Nov-06 23:37N 37°55' W 009°53'314.5
2017-Nov-06 23:25N 37°58' W 009°54'714.7
2017-Nov-06 22:58N 38°05' W 009°56'715.1
2017-Nov-06 22:30N 38°11' W 009°58'714.9
2017-Nov-06 22:00N 38°19' W 009°60'2015.1
2017-Nov-06 20:42N 38°38' W 010°06'714.6
2017-Nov-06 20:15N 38°44' W 010°07'70614.7
2017-Nov-04 20:10N 49°37' W 003°52'1115.5
2017-Nov-04 19:28N 49°42' W 003°37'714.9
2017-Nov-04 19:00N 49°46' W 003°28'714.6
2017-Nov-04 18:30N 49°49' W 003°18'714.4
2017-Nov-04 18:00N 49°53' W 003°09'714.8
2017-Nov-04 17:30N 49°57' W 002°59'815.0
2017-Nov-04 17:00N 49°60' W 002°48'815.7
2017-Nov-04 16:28N 50°02' W 002°35'2817.7
2017-Nov-04 14:54N 50°10' W 001°54'819.3
2017-Nov-04 14:30N 50°13' W 001°43'1019.9
2017-Nov-04 14:00N 50°16' W 001°28'1119.9
2017-Nov-04 13:28N 50°18' W 001°11'3018.6
2017-Nov-04 11:52N 50°26' W 000°26'617.2
2017-Nov-04 11:30N 50°27' W 000°17'816.6
2017-Nov-04 11:00N 50°29' W 000°04'815.8
2017-Nov-04 10:30N 50°32' E 000°08'815.2
2017-Nov-04 10:00N 50°33' E 000°19'714.8
2017-Nov-04 09:30N 50°36' E 000°30'714.5
2017-Nov-04 09:00N 50°39' E 000°40'714.8
2017-Nov-04 08:30N 50°43' E 000°50'815.4
2017-Nov-04 08:00N 50°48' E 001°00'816.5
2017-Nov-04 07:30N 50°53' E 001°10'918.1
2017-Nov-04 07:00N 50°60' E 001°20'1019.2
2017-Nov-04 06:30N 51°06' E 001°32'1019.6
2017-Nov-04 06:00N 51°12' E 001°43'918.3
2017-Nov-04 05:30N 51°20' E 001°51'917.2
2017-Nov-04 05:00N 51°27' E 001°58'816.5
2017-Nov-04 04:30N 51°34' E 002°07'816.1
2017-Nov-04 04:00N 51°40' E 002°15'815.8
2017-Nov-04 03:30N 51°46' E 002°23'915.4
2017-Nov-04 02:57N 51°52' E 002°32'1015.0
2017-Nov-04 02:16N 52°00' E 002°43'414.9
2017-Nov-04 02:00N 52°03' E 002°48'914.8
2017-Nov-04 01:22N 52°10' E 002°58'614.8
2017-Nov-04 00:59N 52°14' E 003°04'11116.0
2017-Nov-03 18:03N 53°36' E 005°07'115.4
2017-Nov-03 18:00N 53°37' E 005°08'9116.6
2017-Nov-03 12:30N 54°02' E 007°37'816.5
2017-Nov-03 12:00N 54°02' E 007°51'816.6
2017-Nov-03 11:30N 54°01' E 008°05'1914.8
2017-Nov-03 10:14N 53°57' E 008°37'313.8
2017-Nov-03 10:00N 53°55' E 008°40'612.7
2017-Nov-03 09:30N 53°50' E 008°48'713.2
2017-Nov-03 09:00N 53°51' E 008°59'612.9
2017-Nov-03 08:30N 53°53' E 009°09'611.4
2017-Nov-03 08:00N 53°51' E 009°18'815.6
2017-Nov-03 07:31N 53°45' E 009°25'713.9
2017-Nov-03 07:00N 53°39' E 009°31'713.5
2017-Nov-03 06:30N 53°34' E 009°40'612.2
2017-Nov-03 06:00N 53°33' E 009°50'4 8.0
2017-Nov-03 05:31N 53°32' E 009°56'2 3.4
2017-Nov-03 05:00N 53°30' E 009°56'0 0.0
2017-Nov-03 04:30N 53°30' E 009°56'0 0.0
2017-Nov-03 04:00N 53°30' E 009°56'0 0.0
2017-Nov-03 03:31N 53°30' E 009°56'0 0.0
2017-Nov-03 03:01N 53°30' E 009°56'0 0.0
2017-Nov-03 02:30N 53°30' E 009°56'0 0.0
2017-Nov-03 02:00N 53°30' E 009°56'0 0.0
2017-Nov-03 01:31N 53°30' E 009°56'0 0.0
2017-Nov-03 01:01N 53°30' E 009°56'0 0.0
2017-Nov-03 00:30N 53°30' E 009°56'0 0.0
2017-Nov-03 00:00N 53°30' E 009°56'0 0.0
2017-Nov-02 23:30N 53°30' E 009°56'0 0.0
2017-Nov-02 23:00N 53°30' E 009°56'0 0.0
2017-Nov-02 22:30N 53°30' E 009°56'0 0.0
2017-Nov-02 22:00N 53°30' E 009°56'0 0.0
2017-Nov-02 21:30N 53°30' E 009°56'0 0.0
2017-Nov-02 21:00N 53°30' E 009°56'0 0.0
2017-Nov-02 20:30N 53°30' E 009°56'0 0.0
2017-Nov-02 20:01N 53°30' E 009°56'0 0.0
2017-Nov-02 19:30N 53°30' E 009°56'0 0.0
2017-Nov-02 19:00N 53°30' E 009°56'0 0.0
2017-Nov-02 18:30N 53°30' E 009°56'0 0.0
2017-Nov-02 18:00N 53°30' E 009°56'0 0.0
2017-Nov-02 17:30N 53°30' E 009°56'0 0.0
2017-Nov-02 17:00N 53°30' E 009°56'0 0.0
2017-Nov-02 16:30N 53°30' E 009°56'0 0.0
2017-Nov-02 16:01N 53°30' E 009°56'0 0.0
2017-Nov-02 15:30N 53°30' E 009°56'0 0.0
2017-Nov-02 15:00N 53°30' E 009°56'0 0.0
2017-Nov-02 14:30N 53°30' E 009°56'0 0.0
2017-Nov-02 14:00N 53°30' E 009°56'0 0.0
2017-Nov-02 13:30N 53°30' E 009°56'0 0.0
2017-Nov-02 13:01N 53°30' E 009°56'0 0.0
2017-Nov-02 12:31N 53°30' E 009°56'0 0.0
2017-Nov-02 12:00N 53°30' E 009°56'0 0.0
2017-Nov-02 11:30N 53°30' E 009°56'0 0.0
2017-Nov-02 11:00N 53°30' E 009°56'0 0.0
2017-Nov-02 10:31N 53°30' E 009°56'0 0.0
2017-Nov-02 10:00N 53°30' E 009°56'0 0.0
2017-Nov-02 09:30N 53°30' E 009°56'0 0.0
2017-Nov-02 09:01N 53°30' E 009°56'2 4.0
2017-Nov-02 08:30N 53°32' E 009°56'4 8.1
2017-Nov-02 08:00N 53°33' E 009°49'5 9.6
2017-Nov-02 07:31N 53°34' E 009°41'612.8
2017-Nov-02 07:00N 53°38' E 009°32'611.5
2017-Nov-02 06:30N 53°43' E 009°29'613.0
2017-Nov-02 06:00N 53°48' E 009°22'713.4
2017-Nov-02 05:31N 53°53' E 009°14'510.7
2017-Nov-02 05:00N 53°52' E 009°05'713.9
2017-Nov-02 04:30N 53°50' E 008°54'612.3
2017-Nov-02 04:01N 53°52' E 008°44'  
Track history (hours):
 
Tides and Currents Weather Stations Pressure Air Temp Water Temp Dewpoint Dewpoint Depression Visibility Wind Speed Wind Dir Waves Ship Positions

Vivien A

Last reported at 2017-Nov-12 03:54 UTC. Time now 2017-Nov-18 08:59 UTC.
Position N 25°48' W 016°11'.

Length 210 m; draft 11.4 m.

Type: Ship (hazmat cat B). MMSI: 271040635.

Date/timePositionNaut miles runAvg speedWind from/ knotsBaromVisibWave heightAir tempDewpointWater temp
2017-Nov-12 03:54N 25°48' W 016°11'615.2
2017-Nov-12 03:30N 25°52' W 016°06'815.1
2017-Nov-12 02:57N 25°58' W 015°59'715.0
2017-Nov-12 02:30N 26°02' W 015°53'815.0
2017-Nov-12 01:56N 26°08' W 015°46'714.9
2017-Nov-12 01:29N 26°13' W 015°41'714.8
2017-Nov-12 01:00N 26°17' W 015°35'2014.8
2017-Nov-11 23:37N 26°31' W 015°18'714.7
2017-Nov-11 23:09N 26°35' W 015°12'214.6
2017-Nov-11 23:00N 26°37' W 015°10'714.5
2017-Nov-11 22:31N 26°42' W 015°05'714.5
2017-Nov-11 22:00N 26°47' W 014°59'914.5
2017-Nov-11 21:24N 26°53' W 014°51'814.4
2017-Nov-11 20:50N 26°58' W 014°44'514.2
2017-Nov-11 20:30N 27°01' W 014°40'714.5
2017-Nov-11 20:00N 27°06' W 014°34'714.7
2017-Nov-11 19:30N 27°11' W 014°28'714.7
2017-Nov-11 19:00N 27°16' W 014°22'714.7
2017-Nov-11 18:30N 27°21' W 014°16'714.6
2017-Nov-11 18:00N 27°26' W 014°10'715.0
2017-Nov-11 17:31N 27°31' W 014°04'815.8
2017-Nov-11 17:01N 27°37' W 013°58'815.8
2017-Nov-11 16:31N 27°42' W 013°51'815.5
2017-Nov-11 16:00N 27°47' W 013°44'815.3
2017-Nov-11 15:30N 27°52' W 013°38'715.1
2017-Nov-11 15:00N 27°58' W 013°33'1215.0
2017-Nov-11 14:13N 28°08' W 013°25'315.0
2017-Nov-11 14:01N 28°10' W 013°23'915.0
2017-Nov-11 13:25N 28°18' W 013°18'714.7
2017-Nov-11 12:58N 28°24' W 013°14'714.8
2017-Nov-11 12:30N 28°29' W 013°10'814.8
2017-Nov-11 11:57N 28°36' W 013°05'714.8
2017-Nov-11 11:26N 28°43' W 013°00'614.7
2017-Nov-11 11:00N 28°48' W 012°56'714.3
2017-Nov-11 10:30N 28°54' W 012°52'714.1
2017-Nov-11 10:00N 29°00' W 012°48'714.3
2017-Nov-11 09:30N 29°06' W 012°44'714.3
2017-Nov-11 09:00N 29°12' W 012°39'714.3
2017-Nov-11 08:30N 29°18' W 012°35'714.6
2017-Nov-11 08:00N 29°25' W 012°30'814.5
2017-Nov-11 07:25N 29°32' W 012°25'714.6
2017-Nov-11 06:55N 29°38' W 012°21'1414.8
2017-Nov-11 05:56N 29°50' W 012°12'2014.8
2017-Nov-11 04:34N 30°08' W 012°00'314.7
2017-Nov-11 04:21N 30°11' W 011°59'514.8
2017-Nov-11 03:59N 30°16' W 011°56'914.6
2017-Nov-11 03:24N 30°23' W 011°51'1414.4
2017-Nov-11 02:25N 30°35' W 011°42'614.7
2017-Nov-11 02:00N 30°40' W 011°38'914.7
2017-Nov-11 01:23N 30°48' W 011°33'614.7
2017-Nov-11 01:01N 30°53' W 011°29'2715.0
2017-Nov-10 23:14N 31°15' W 011°13'1515.4
2017-Nov-10 22:17N 31°28' W 011°04'515.2
2017-Nov-10 21:57N 31°32' W 011°01'1114.9
2017-Nov-10 21:14N 31°41' W 010°54'224 4.7
2017-Nov-08 21:25N 33°60' W 007°25'5715.8
2017-Nov-08 17:46N 34°51' W 006°55'415.5
2017-Nov-08 17:30N 34°55' W 006°53'1315.3
2017-Nov-08 16:40N 35°07' W 006°46'315.7
2017-Nov-08 16:30N 35°09' W 006°45'57 2.5
2017-Nov-07 17:45N 35°53' W 006°01'312.8
2017-Nov-07 17:30N 35°53' W 006°05'612.7
2017-Nov-07 17:00N 35°54' W 006°13'713.6
2017-Nov-07 16:30N 35°55' W 006°21'1914.2
2017-Nov-07 15:12N 35°60' W 006°43'513.9
2017-Nov-07 14:51N 36°01' W 006°49'16412.5
2017-Nov-07 01:42N 37°25' W 009°45'315.0
2017-Nov-07 01:30N 37°28' W 009°46'815.2
2017-Nov-07 01:00N 37°35' W 009°48'2014.7
2017-Nov-06 23:37N 37°55' W 009°53'314.5
2017-Nov-06 23:25N 37°58' W 009°54'714.7
2017-Nov-06 22:58N 38°05' W 009°56'715.1
2017-Nov-06 22:30N 38°11' W 009°58'714.9
2017-Nov-06 22:00N 38°19' W 009°60'2015.1
2017-Nov-06 20:42N 38°38' W 010°06'714.6
2017-Nov-06 20:15N 38°44' W 010°07'70614.7
2017-Nov-04 20:10N 49°37' W 003°52'1115.5
2017-Nov-04 19:28N 49°42' W 003°37'714.9
2017-Nov-04 19:00N 49°46' W 003°28'714.6
2017-Nov-04 18:30N 49°49' W 003°18'714.4
2017-Nov-04 18:00N 49°53' W 003°09'714.8
2017-Nov-04 17:30N 49°57' W 002°59'815.0
2017-Nov-04 17:00N 49°60' W 002°48'815.7
2017-Nov-04 16:28N 50°02' W 002°35'2817.7
2017-Nov-04 14:54N 50°10' W 001°54'819.3
2017-Nov-04 14:30N 50°13' W 001°43'1019.9
2017-Nov-04 14:00N 50°16' W 001°28'1119.9
2017-Nov-04 13:28N 50°18' W 001°11'3018.6
2017-Nov-04 11:52N 50°26' W 000°26'617.2
2017-Nov-04 11:30N 50°27' W 000°17'816.6
2017-Nov-04 11:00N 50°29' W 000°04'815.8
2017-Nov-04 10:30N 50°32' E 000°08'815.2
2017-Nov-04 10:00N 50°33' E 000°19'714.8
2017-Nov-04 09:30N 50°36' E 000°30'714.5
2017-Nov-04 09:00N 50°39' E 000°40'714.8
2017-Nov-04 08:30N 50°43' E 000°50'815.4
2017-Nov-04 08:00N 50°48' E 001°00'816.5
2017-Nov-04 07:30N 50°53' E 001°10'918.1
2017-Nov-04 07:00N 50°60' E 001°20'1019.2
2017-Nov-04 06:30N 51°06' E 001°32'1019.6
2017-Nov-04 06:00N 51°12' E 001°43'918.3
2017-Nov-04 05:30N 51°20' E 001°51'917.2
2017-Nov-04 05:00N 51°27' E 001°58'816.5
2017-Nov-04 04:30N 51°34' E 002°07'816.1
2017-Nov-04 04:00N 51°40' E 002°15'815.8
2017-Nov-04 03:30N 51°46' E 002°23'915.4
2017-Nov-04 02:57N 51°52' E 002°32'1015.0
2017-Nov-04 02:16N 52°00' E 002°43'414.9
2017-Nov-04 02:00N 52°03' E 002°48'914.8
2017-Nov-04 01:22N 52°10' E 002°58'614.8
2017-Nov-04 00:59N 52°14' E 003°04'11116.0
2017-Nov-03 18:03N 53°36' E 005°07'115.4
2017-Nov-03 18:00N 53°37' E 005°08'9116.6
2017-Nov-03 12:30N 54°02' E 007°37'816.5
2017-Nov-03 12:00N 54°02' E 007°51'816.6
2017-Nov-03 11:30N 54°01' E 008°05'1914.8
2017-Nov-03 10:14N 53°57' E 008°37'313.8
2017-Nov-03 10:00N 53°55' E 008°40'612.7
2017-Nov-03 09:30N 53°50' E 008°48'713.2
2017-Nov-03 09:00N 53°51' E 008°59'612.9
2017-Nov-03 08:30N 53°53' E 009°09'611.4
2017-Nov-03 08:00N 53°51' E 009°18'815.6
2017-Nov-03 07:31N 53°45' E 009°25'713.9
2017-Nov-03 07:00N 53°39' E 009°31'713.5
2017-Nov-03 06:30N 53°34' E 009°40'612.2
2017-Nov-03 06:00N 53°33' E 009°50'4 8.0
2017-Nov-03 05:31N 53°32' E 009°56'2 3.4
2017-Nov-03 05:00N 53°30' E 009°56'0 0.0
2017-Nov-03 04:30N 53°30' E 009°56'0 0.0
2017-Nov-03 04:00N 53°30' E 009°56'0 0.0
2017-Nov-03 03:31N 53°30' E 009°56'0 0.0
2017-Nov-03 03:01N 53°30' E 009°56'0 0.0
2017-Nov-03 02:30N 53°30' E 009°56'0 0.0
2017-Nov-03 02:00N 53°30' E 009°56'0 0.0
2017-Nov-03 01:31N 53°30' E 009°56'0 0.0
2017-Nov-03 01:01N 53°30' E 009°56'0 0.0
2017-Nov-03 00:30N 53°30' E 009°56'0 0.0
2017-Nov-03 00:00N 53°30' E 009°56'0 0.0
2017-Nov-02 23:30N 53°30' E 009°56'0 0.0
2017-Nov-02 23:00N 53°30' E 009°56'0 0.0
2017-Nov-02 22:30N 53°30' E 009°56'0 0.0
2017-Nov-02 22:00N 53°30' E 009°56'0 0.0
2017-Nov-02 21:30N 53°30' E 009°56'0 0.0
2017-Nov-02 21:00N 53°30' E 009°56'0 0.0
2017-Nov-02 20:30N 53°30' E 009°56'0 0.0
2017-Nov-02 20:01N 53°30' E 009°56'0 0.0
2017-Nov-02 19:30N 53°30' E 009°56'0 0.0
2017-Nov-02 19:00N 53°30' E 009°56'0 0.0
2017-Nov-02 18:30N 53°30' E 009°56'0 0.0
2017-Nov-02 18:00N 53°30' E 009°56'0 0.0
2017-Nov-02 17:30N 53°30' E 009°56'0 0.0
2017-Nov-02 17:00N 53°30' E 009°56'0 0.0
2017-Nov-02 16:30N 53°30' E 009°56'0 0.0
2017-Nov-02 16:01N 53°30' E 009°56'0 0.0
2017-Nov-02 15:30N 53°30' E 009°56'0 0.0
2017-Nov-02 15:00N 53°30' E 009°56'0 0.0
2017-Nov-02 14:30N 53°30' E 009°56'0 0.0
2017-Nov-02 14:00N 53°30' E 009°56'0 0.0
2017-Nov-02 13:30N 53°30' E 009°56'0 0.0
2017-Nov-02 13:01N 53°30' E 009°56'0 0.0
2017-Nov-02 12:31N 53°30' E 009°56'0 0.0
2017-Nov-02 12:00N 53°30' E 009°56'0 0.0
2017-Nov-02 11:30N 53°30' E 009°56'0 0.0
2017-Nov-02 11:00N 53°30' E 009°56'0 0.0
2017-Nov-02 10:31N 53°30' E 009°56'0 0.0
2017-Nov-02 10:00N 53°30' E 009°56'0 0.0
2017-Nov-02 09:30N 53°30' E 009°56'0 0.0
2017-Nov-02 09:01N 53°30' E 009°56'2 4.0
2017-Nov-02 08:30N 53°32' E 009°56'4 8.1
2017-Nov-02 08:00N 53°33' E 009°49'5 9.6
2017-Nov-02 07:31N 53°34' E 009°41'612.8
2017-Nov-02 07:00N 53°38' E 009°32'611.5
2017-Nov-02 06:30N 53°43' E 009°29'613.0
2017-Nov-02 06:00N 53°48' E 009°22'713.4
2017-Nov-02 05:31N 53°53' E 009°14'510.7
2017-Nov-02 05:00N 53°52' E 009°05'713.9
2017-Nov-02 04:30N 53°50' E 008°54'612.3
2017-Nov-02 04:01N 53°52' E 008°44'  

Dump ship's entire track history